AUA62J LOWW-LDDU
Flight info
| Callsign | AUA62J |
|---|---|
| Flight time | 1h 0m |
| Altitude | 33000 |
| Route | STEIN DCT NOHAT DCT KOPRY DCT NETKO |
| Aircraft | A320/M-SDE3FGHIRWY/LB1 |
Departure
| Time | 2026-04-21 21:36 |
|---|---|
| Airport | Vienna International Airport (LOWW) |
Arrival
| Time | 2026-04-21 22:36 |
|---|---|
| Airport | Dubrovnik Ruđer Bošković Airport (LDDU) |
| Time | Latitude | Longitude | Altitude | Speed | Heading |
|---|---|---|---|---|---|
| 2026-04-21 21:05 | 48.11848 | 16.56008 | 609 ft | 0 kts | 124° |
| 2026-04-21 21:22 | 48.11848 | 16.56007 | 609 ft | 1 kts | 124° |
| 2026-04-21 21:23 | 48.11862 | 16.55978 | 625 ft | 4 kts | 124° |
| 2026-04-21 21:23 | 48.11877 | 16.55945 | 622 ft | 4 kts | 128° |
| 2026-04-21 21:23 | 48.11895 | 16.55917 | 622 ft | 4 kts | 155° |
| 2026-04-21 21:23 | 48.11911 | 16.55912 | 620 ft | 0 kts | 206° |
| 2026-04-21 21:27 | 48.11909 | 16.55911 | 620 ft | 1 kts | 206° |
| 2026-04-21 21:27 | 48.11905 | 16.55908 | 619 ft | 0 kts | 206° |
| 2026-04-21 21:27 | 48.11904 | 16.55908 | 625 ft | 1 kts | 206° |
| 2026-04-21 21:27 | 48.11854 | 16.55872 | 609 ft | 12 kts | 205° |
| 2026-04-21 21:28 | 48.11799 | 16.55833 | 614 ft | 8 kts | 205° |
| 2026-04-21 21:28 | 48.11756 | 16.55802 | 619 ft | 6 kts | 206° |
| 2026-04-21 21:28 | 48.11672 | 16.55850 | 623 ft | 11 kts | 114° |
| 2026-04-21 21:29 | 48.11643 | 16.55945 | 616 ft | 10 kts | 116° |
| 2026-04-21 21:29 | 48.11599 | 16.56077 | 619 ft | 19 kts | 116° |
| 2026-04-21 21:29 | 48.11539 | 16.56261 | 618 ft | 17 kts | 115° |
| 2026-04-21 21:29 | 48.11490 | 16.56413 | 609 ft | 15 kts | 116° |
| 2026-04-21 21:30 | 48.11446 | 16.56548 | 612 ft | 14 kts | 115° |
| 2026-04-21 21:30 | 48.11407 | 16.56669 | 613 ft | 12 kts | 116° |
| 2026-04-21 21:30 | 48.11371 | 16.56775 | 620 ft | 12 kts | 116° |
| 2026-04-21 21:30 | 48.11333 | 16.56895 | 620 ft | 12 kts | 115° |
| 2026-04-21 21:31 | 48.11298 | 16.57002 | 620 ft | 11 kts | 116° |
| 2026-04-21 21:31 | 48.11268 | 16.57095 | 620 ft | 10 kts | 116° |
| 2026-04-21 21:31 | 48.11226 | 16.57227 | 620 ft | 17 kts | 116° |
| 2026-04-21 21:31 | 48.11176 | 16.57376 | 618 ft | 15 kts | 116° |
| 2026-04-21 21:32 | 48.11133 | 16.57507 | 615 ft | 13 kts | 115° |
| 2026-04-21 21:32 | 48.11099 | 16.57615 | 612 ft | 9 kts | 117° |
| 2026-04-21 21:32 | 48.11052 | 16.57653 | 621 ft | 7 kts | 185° |
| 2026-04-21 21:32 | 48.11024 | 16.57633 | 621 ft | 1 kts | 208° |
| 2026-04-21 21:33 | 48.11023 | 16.57633 | 621 ft | 0 kts | 208° |
| 2026-04-21 21:33 | 48.11022 | 16.57632 | 620 ft | 2 kts | 208° |
| 2026-04-21 21:34 | 48.10972 | 16.57592 | 616 ft | 13 kts | 207° |
| 2026-04-21 21:34 | 48.10918 | 16.57532 | 615 ft | 6 kts | 253° |
| 2026-04-21 21:34 | 48.10930 | 16.57487 | 615 ft | 0 kts | 296° |
| 2026-04-21 21:35 | 48.10938 | 16.57464 | 612 ft | 15 kts | 296° |
| 2026-04-21 21:35 | 48.11098 | 16.56969 | 623 ft | 86 kts | 296° |
| 2026-04-21 21:35 | 48.11451 | 16.55890 | 618 ft | 142 kts | 296° |
| 2026-04-21 21:35 | 48.11933 | 16.54411 | 902 ft | 161 kts | 296° |
| 2026-04-21 21:36 | 48.12201 | 16.52798 | 1594 ft | 168 kts | 263° |
| 2026-04-21 21:36 | 48.11596 | 16.51245 | 2001 ft | 188 kts | 216° |
| 2026-04-21 21:36 | 48.10360 | 16.50387 | 2330 ft | 206 kts | 196° |
| 2026-04-21 21:36 | 48.08924 | 16.49777 | 2688 ft | 224 kts | 193° |
| 2026-04-21 21:37 | 48.07385 | 16.49147 | 3312 ft | 230 kts | 194° |
| 2026-04-21 21:37 | 48.05845 | 16.48482 | 4131 ft | 231 kts | 198° |
| 2026-04-21 21:37 | 48.04416 | 16.47324 | 4749 ft | 241 kts | 214° |
| 2026-04-21 21:37 | 48.02977 | 16.45876 | 5250 ft | 257 kts | 213° |
| 2026-04-21 21:38 | 48.01432 | 16.44375 | 5810 ft | 273 kts | 213° |
| 2026-04-21 21:38 | 47.99760 | 16.42945 | 6558 ft | 279 kts | 200° |
| 2026-04-21 21:38 | 47.97870 | 16.42331 | 7386 ft | 280 kts | 181° |
| 2026-04-21 21:38 | 47.95924 | 16.42608 | 8152 ft | 284 kts | 166° |
| 2026-04-21 21:39 | 47.93972 | 16.43304 | 8884 ft | 291 kts | 165° |
| 2026-04-21 21:39 | 47.91990 | 16.43999 | 9703 ft | 294 kts | 166° |
| 2026-04-21 21:39 | 47.89989 | 16.44685 | 10499 ft | 297 kts | 166° |
| 2026-04-21 21:39 | 47.87937 | 16.45398 | 10980 ft | 311 kts | 166° |
| 2026-04-21 21:40 | 47.85747 | 16.46169 | 11191 ft | 335 kts | 166° |
| 2026-04-21 21:40 | 47.83405 | 16.46996 | 11338 ft | 357 kts | 166° |
| 2026-04-21 21:40 | 47.80916 | 16.47877 | 11556 ft | 375 kts | 166° |
| 2026-04-21 21:40 | 47.78342 | 16.48786 | 12109 ft | 382 kts | 166° |
| 2026-04-21 21:41 | 47.75745 | 16.49698 | 12780 ft | 385 kts | 167° |
| 2026-04-21 21:41 | 47.73112 | 16.50622 | 13393 ft | 391 kts | 167° |
| 2026-04-21 21:41 | 47.70456 | 16.51555 | 14048 ft | 394 kts | 167° |
| 2026-04-21 21:41 | 47.67816 | 16.52478 | 14680 ft | 395 kts | 167° |
| 2026-04-21 21:42 | 47.65091 | 16.53426 | 15240 ft | 400 kts | 167° |
| 2026-04-21 21:42 | 47.62369 | 16.54370 | 15817 ft | 403 kts | 167° |
| 2026-04-21 21:42 | 47.59628 | 16.55325 | 16411 ft | 406 kts | 167° |
| 2026-04-21 21:42 | 47.56864 | 16.56294 | 16939 ft | 410 kts | 167° |
| 2026-04-21 21:43 | 47.54107 | 16.57265 | 17513 ft | 413 kts | 167° |
| 2026-04-21 21:43 | 47.51264 | 16.58247 | 18078 ft | 417 kts | 169° |
| 2026-04-21 21:43 | 47.48417 | 16.58874 | 18581 ft | 420 kts | 173° |
| 2026-04-21 21:43 | 47.45474 | 16.59449 | 19041 ft | 423 kts | 173° |
| 2026-04-21 21:44 | 47.42552 | 16.59965 | 19498 ft | 425 kts | 178° |
| 2026-04-21 21:44 | 47.39590 | 16.60105 | 19948 ft | 427 kts | 180° |
| 2026-04-21 21:44 | 47.36614 | 16.60219 | 20398 ft | 429 kts | 180° |
| 2026-04-21 21:44 | 47.33657 | 16.60341 | 20844 ft | 431 kts | 180° |
| 2026-04-21 21:45 | 47.30648 | 16.60470 | 21271 ft | 434 kts | 180° |
| 2026-04-21 21:45 | 47.27624 | 16.60607 | 21689 ft | 436 kts | 180° |
| 2026-04-21 21:45 | 47.24586 | 16.60749 | 22098 ft | 438 kts | 180° |
| 2026-04-21 21:45 | 47.21533 | 16.60891 | 22502 ft | 440 kts | 180° |
| 2026-04-21 21:46 | 47.18466 | 16.61031 | 22861 ft | 442 kts | 181° |
| 2026-04-21 21:46 | 47.15380 | 16.61171 | 23221 ft | 445 kts | 181° |
| 2026-04-21 21:46 | 47.12272 | 16.61309 | 23584 ft | 447 kts | 181° |
| 2026-04-21 21:46 | 47.09150 | 16.61442 | 23900 ft | 449 kts | 181° |
| 2026-04-21 21:47 | 47.06008 | 16.61578 | 24188 ft | 452 kts | 181° |
| 2026-04-21 21:47 | 47.02865 | 16.61711 | 24471 ft | 454 kts | 181° |
| 2026-04-21 21:47 | 46.99702 | 16.61845 | 24739 ft | 456 kts | 181° |
| 2026-04-21 21:47 | 46.96522 | 16.61980 | 25000 ft | 458 kts | 181° |
| 2026-04-21 21:48 | 46.93328 | 16.62114 | 25258 ft | 460 kts | 181° |
| 2026-04-21 21:48 | 46.90115 | 16.62245 | 25510 ft | 462 kts | 181° |
| 2026-04-21 21:48 | 46.87982 | 16.62333 | 25674 ft | 464 kts | 181° |
| 2026-04-21 21:48 | 46.84754 | 16.62481 | 25918 ft | 466 kts | 180° |
| 2026-04-21 21:49 | 46.81515 | 16.63055 | 26155 ft | 471 kts | 171° |
| 2026-04-21 21:49 | 46.77332 | 16.64870 | 26442 ft | 477 kts | 160° |
| 2026-04-21 21:49 | 46.74252 | 16.66712 | 26641 ft | 480 kts | 160° |
| 2026-04-21 21:49 | 46.71154 | 16.68563 | 26849 ft | 481 kts | 160° |
| 2026-04-21 21:50 | 46.69053 | 16.69815 | 27001 ft | 482 kts | 160° |
| 2026-04-21 21:50 | 46.65953 | 16.71658 | 27295 ft | 482 kts | 160° |
| 2026-04-21 21:50 | 46.62852 | 16.73492 | 27610 ft | 481 kts | 160° |
| 2026-04-21 21:50 | 46.59748 | 16.75322 | 27910 ft | 481 kts | 160° |
| 2026-04-21 21:51 | 46.56649 | 16.77148 | 28209 ft | 480 kts | 160° |
| 2026-04-21 21:51 | 46.53558 | 16.78970 | 28496 ft | 480 kts | 160° |
| 2026-04-21 21:51 | 46.50465 | 16.80796 | 28818 ft | 480 kts | 160° |
| 2026-04-21 21:51 | 46.47374 | 16.82618 | 29122 ft | 480 kts | 160° |
| 2026-04-21 21:52 | 46.44313 | 16.84420 | 29432 ft | 479 kts | 160° |
| 2026-04-21 21:52 | 46.41225 | 16.86234 | 29733 ft | 479 kts | 160° |
| 2026-04-21 21:52 | 46.38138 | 16.88045 | 30053 ft | 479 kts | 160° |
| 2026-04-21 21:52 | 46.35054 | 16.89852 | 30352 ft | 478 kts | 160° |
| 2026-04-21 21:53 | 46.31969 | 16.91658 | 30580 ft | 479 kts | 161° |
| 2026-04-21 21:53 | 46.28877 | 16.93462 | 30774 ft | 480 kts | 161° |
| 2026-04-21 21:53 | 46.25772 | 16.95253 | 30998 ft | 480 kts | 163° |
| 2026-04-21 21:53 | 46.22575 | 16.96584 | 31231 ft | 476 kts | 172° |
| 2026-04-21 21:54 | 46.19311 | 16.97365 | 31475 ft | 475 kts | 175° |
| 2026-04-21 21:54 | 46.16051 | 16.98102 | 31747 ft | 474 kts | 175° |
| 2026-04-21 21:54 | 46.12794 | 16.98848 | 32021 ft | 473 kts | 175° |
| 2026-04-21 21:54 | 46.09539 | 16.99597 | 32258 ft | 473 kts | 175° |
| 2026-04-21 21:55 | 46.06284 | 17.00346 | 32497 ft | 474 kts | 175° |
| 2026-04-21 21:55 | 46.03072 | 17.01087 | 32736 ft | 474 kts | 175° |
| 2026-04-21 21:55 | 45.99812 | 17.01841 | 32990 ft | 474 kts | 175° |
| 2026-04-21 21:55 | 45.96554 | 17.02596 | 33117 ft | 475 kts | 175° |
| 2026-04-21 21:56 | 45.93274 | 17.03351 | 33135 ft | 478 kts | 175° |
| 2026-04-21 21:56 | 45.86698 | 17.04857 | 33135 ft | 479 kts | 176° |
| 2026-04-21 21:57 | 45.80098 | 17.06354 | 33133 ft | 480 kts | 176° |
| 2026-04-21 21:57 | 45.73501 | 17.07843 | 33133 ft | 480 kts | 176° |
| 2026-04-21 21:58 | 45.66897 | 17.09343 | 33112 ft | 480 kts | 177° |
| 2026-04-21 21:58 | 45.60289 | 17.10840 | 33114 ft | 480 kts | 177° |
| 2026-04-21 21:59 | 45.53690 | 17.12335 | 33116 ft | 480 kts | 177° |
| 2026-04-21 21:59 | 45.47083 | 17.13827 | 33120 ft | 481 kts | 177° |
| 2026-04-21 22:00 | 45.40514 | 17.15304 | 33122 ft | 481 kts | 177° |
| 2026-04-21 22:00 | 45.33897 | 17.16781 | 33124 ft | 481 kts | 177° |
| 2026-04-21 22:01 | 45.27278 | 17.18248 | 33132 ft | 481 kts | 177° |
| 2026-04-21 22:01 | 45.20654 | 17.19721 | 33106 ft | 481 kts | 178° |
| 2026-04-21 22:02 | 45.14033 | 17.21193 | 33127 ft | 480 kts | 178° |
| 2026-04-21 22:02 | 45.07475 | 17.22648 | 33124 ft | 480 kts | 178° |
| 2026-04-21 22:03 | 45.00870 | 17.24114 | 33098 ft | 480 kts | 178° |
| 2026-04-21 22:03 | 44.94274 | 17.25579 | 33129 ft | 480 kts | 178° |
| 2026-04-21 22:04 | 44.87679 | 17.27035 | 33132 ft | 480 kts | 179° |
| 2026-04-21 22:04 | 44.81083 | 17.28484 | 33100 ft | 480 kts | 179° |
| 2026-04-21 22:05 | 44.74482 | 17.29928 | 33116 ft | 480 kts | 179° |
| 2026-04-21 22:05 | 44.67880 | 17.31373 | 33114 ft | 480 kts | 179° |
| 2026-04-21 22:06 | 44.61271 | 17.32818 | 33079 ft | 480 kts | 180° |
| 2026-04-21 22:06 | 44.54658 | 17.34265 | 33094 ft | 481 kts | 180° |
| 2026-04-21 22:07 | 44.48089 | 17.35690 | 33103 ft | 481 kts | 180° |
| 2026-04-21 22:07 | 44.41468 | 17.37111 | 33092 ft | 481 kts | 180° |
| 2026-04-21 22:08 | 44.34826 | 17.38543 | 33104 ft | 483 kts | 180° |
| 2026-04-21 22:08 | 44.28191 | 17.39980 | 33107 ft | 482 kts | 180° |
| 2026-04-21 22:09 | 44.21559 | 17.41415 | 33081 ft | 482 kts | 180° |
| 2026-04-21 22:09 | 44.14961 | 17.42833 | 33096 ft | 483 kts | 180° |
| 2026-04-21 22:10 | 44.08325 | 17.44250 | 33096 ft | 482 kts | 180° |
| 2026-04-21 22:10 | 44.01695 | 17.45671 | 33078 ft | 481 kts | 180° |
| 2026-04-21 22:10 | 43.98391 | 17.46379 | 32890 ft | 479 kts | 180° |
| 2026-04-21 22:11 | 43.95075 | 17.47085 | 31867 ft | 483 kts | 180° |
| 2026-04-21 22:11 | 43.91740 | 17.47789 | 30886 ft | 487 kts | 180° |
| 2026-04-21 22:11 | 43.88392 | 17.48500 | 30044 ft | 486 kts | 181° |
| 2026-04-21 22:11 | 43.85063 | 17.49216 | 29222 ft | 483 kts | 180° |
| 2026-04-21 22:12 | 43.81752 | 17.49932 | 28434 ft | 478 kts | 180° |
| 2026-04-21 22:12 | 43.78481 | 17.50634 | 27744 ft | 472 kts | 180° |
| 2026-04-21 22:12 | 43.75258 | 17.51320 | 27083 ft | 466 kts | 180° |
| 2026-04-21 22:12 | 43.72070 | 17.51996 | 26482 ft | 461 kts | 180° |
| 2026-04-21 22:13 | 43.68915 | 17.52661 | 25879 ft | 456 kts | 180° |
| 2026-04-21 22:13 | 43.65792 | 17.53315 | 25260 ft | 452 kts | 179° |
| 2026-04-21 22:13 | 43.62696 | 17.53964 | 24624 ft | 447 kts | 180° |
| 2026-04-21 22:13 | 43.59665 | 17.54598 | 24024 ft | 446 kts | 180° |
| 2026-04-21 22:14 | 43.56605 | 17.55237 | 23393 ft | 443 kts | 179° |
| 2026-04-21 22:14 | 43.53566 | 17.55873 | 22758 ft | 440 kts | 179° |
| 2026-04-21 22:14 | 43.50554 | 17.56506 | 22185 ft | 436 kts | 179° |
| 2026-04-21 22:14 | 43.47579 | 17.57134 | 21662 ft | 430 kts | 179° |
| 2026-04-21 22:15 | 43.44643 | 17.57757 | 20991 ft | 421 kts | 179° |
| 2026-04-21 22:15 | 43.41780 | 17.58368 | 20331 ft | 408 kts | 178° |
| 2026-04-21 22:15 | 43.39043 | 17.58956 | 19848 ft | 391 kts | 178° |
| 2026-04-21 22:15 | 43.36407 | 17.59517 | 19360 ft | 376 kts | 178° |
| 2026-04-21 22:16 | 43.33860 | 17.60051 | 18892 ft | 363 kts | 179° |
| 2026-04-21 22:16 | 43.31411 | 17.60557 | 18412 ft | 351 kts | 179° |
| 2026-04-21 22:16 | 43.29042 | 17.61041 | 17930 ft | 347 kts | 178° |
| 2026-04-21 22:16 | 43.26655 | 17.61524 | 17477 ft | 346 kts | 178° |
| 2026-04-21 22:17 | 43.24279 | 17.62008 | 17040 ft | 345 kts | 178° |
| 2026-04-21 22:17 | 43.21909 | 17.62493 | 16582 ft | 343 kts | 178° |
| 2026-04-21 22:17 | 43.19552 | 17.62977 | 16142 ft | 342 kts | 178° |
| 2026-04-21 22:17 | 43.17206 | 17.63462 | 15712 ft | 340 kts | 178° |
| 2026-04-21 22:18 | 43.14869 | 17.63946 | 15271 ft | 339 kts | 178° |
| 2026-04-21 22:18 | 43.12541 | 17.64430 | 14839 ft | 338 kts | 177° |
| 2026-04-21 22:18 | 43.10227 | 17.64912 | 14396 ft | 336 kts | 177° |
| 2026-04-21 22:18 | 43.07917 | 17.65383 | 13968 ft | 334 kts | 179° |
| 2026-04-21 22:19 | 43.05620 | 17.65428 | 13516 ft | 325 kts | 192° |
| 2026-04-21 22:19 | 43.03435 | 17.64848 | 13089 ft | 316 kts | 203° |
| 2026-04-21 22:19 | 43.01439 | 17.63739 | 12702 ft | 304 kts | 214° |
| 2026-04-21 22:19 | 42.99709 | 17.62293 | 12500 ft | 281 kts | 218° |
| 2026-04-21 22:20 | 42.98090 | 17.60891 | 12205 ft | 270 kts | 218° |
| 2026-04-21 22:20 | 42.96519 | 17.59540 | 12027 ft | 260 kts | 217° |
| 2026-04-21 22:20 | 42.95018 | 17.58254 | 11986 ft | 252 kts | 218° |
| 2026-04-21 22:20 | 42.93560 | 17.56993 | 11985 ft | 251 kts | 218° |
| 2026-04-21 22:21 | 42.92084 | 17.55714 | 11986 ft | 251 kts | 218° |
| 2026-04-21 22:21 | 42.90613 | 17.54435 | 11986 ft | 250 kts | 219° |
| 2026-04-21 22:21 | 42.89403 | 17.52820 | 11985 ft | 240 kts | 245° |
| 2026-04-21 22:21 | 42.88888 | 17.50717 | 11987 ft | 233 kts | 269° |
| 2026-04-21 22:22 | 42.89091 | 17.48558 | 11985 ft | 231 kts | 291° |
| 2026-04-21 22:22 | 42.89947 | 17.46719 | 11987 ft | 233 kts | 315° |
| 2026-04-21 22:22 | 42.91330 | 17.45553 | 11991 ft | 239 kts | 339° |
| 2026-04-21 22:22 | 42.93009 | 17.45342 | 11990 ft | 250 kts | 5° |
| 2026-04-21 22:23 | 42.94647 | 17.46237 | 11995 ft | 260 kts | 27° |
| 2026-04-21 22:23 | 42.96005 | 17.47905 | 11988 ft | 270 kts | 53° |
| 2026-04-21 22:23 | 42.96650 | 17.50329 | 11990 ft | 278 kts | 85° |
| 2026-04-21 22:23 | 42.96310 | 17.52882 | 11995 ft | 280 kts | 119° |
| 2026-04-21 22:24 | 42.95050 | 17.54857 | 11989 ft | 276 kts | 152° |
| 2026-04-21 22:24 | 42.93287 | 17.55662 | 11985 ft | 264 kts | 184° |
| 2026-04-21 22:24 | 42.91540 | 17.55211 | 11989 ft | 252 kts | 213° |
| 2026-04-21 22:24 | 42.89989 | 17.53990 | 11983 ft | 265 kts | 211° |
| 2026-04-21 22:25 | 42.88134 | 17.53541 | 11978 ft | 282 kts | 178° |
| 2026-04-21 22:25 | 42.86275 | 17.54478 | 11605 ft | 293 kts | 145° |
| 2026-04-21 22:25 | 42.84896 | 17.56578 | 10944 ft | 302 kts | 122° |
| 2026-04-21 22:25 | 42.83785 | 17.58965 | 10496 ft | 294 kts | 122° |
| 2026-04-21 22:26 | 42.82717 | 17.61286 | 10116 ft | 284 kts | 121° |
| 2026-04-21 22:26 | 42.81679 | 17.63533 | 9761 ft | 278 kts | 121° |
| 2026-04-21 22:26 | 42.80660 | 17.65728 | 9391 ft | 277 kts | 121° |
| 2026-04-21 22:26 | 42.79637 | 17.67917 | 9030 ft | 269 kts | 121° |
| 2026-04-21 22:27 | 42.78647 | 17.70022 | 8683 ft | 259 kts | 122° |
| 2026-04-21 22:27 | 42.77685 | 17.72059 | 8358 ft | 251 kts | 122° |
| 2026-04-21 22:27 | 42.76806 | 17.74074 | 8009 ft | 244 kts | 117° |
| 2026-04-21 22:27 | 42.76017 | 17.76075 | 7649 ft | 237 kts | 116° |
| 2026-04-21 22:28 | 42.75267 | 17.78037 | 7305 ft | 230 kts | 116° |
| 2026-04-21 22:28 | 42.74537 | 17.79945 | 6965 ft | 225 kts | 116° |
| 2026-04-21 22:28 | 42.73823 | 17.81807 | 6630 ft | 220 kts | 116° |
| 2026-04-21 22:28 | 42.73118 | 17.83638 | 6288 ft | 218 kts | 116° |
| 2026-04-21 22:29 | 42.72417 | 17.85447 | 5939 ft | 215 kts | 116° |
| 2026-04-21 22:29 | 42.71724 | 17.87233 | 5597 ft | 212 kts | 116° |
| 2026-04-21 22:29 | 42.71039 | 17.88994 | 5263 ft | 210 kts | 116° |
| 2026-04-21 22:29 | 42.70358 | 17.90737 | 4931 ft | 208 kts | 116° |
| 2026-04-21 22:30 | 42.69685 | 17.92454 | 4727 ft | 204 kts | 116° |
| 2026-04-21 22:30 | 42.69016 | 17.94162 | 4676 ft | 205 kts | 116° |
| 2026-04-21 22:30 | 42.68348 | 17.95869 | 4617 ft | 205 kts | 116° |
| 2026-04-21 22:30 | 42.67677 | 17.97577 | 4522 ft | 204 kts | 116° |
| 2026-04-21 22:31 | 42.67008 | 17.99280 | 4416 ft | 204 kts | 117° |
| 2026-04-21 22:31 | 42.66359 | 18.00930 | 4376 ft | 191 kts | 116° |
| 2026-04-21 22:31 | 42.65748 | 18.02474 | 4159 ft | 185 kts | 116° |
| 2026-04-21 22:31 | 42.65150 | 18.03988 | 3929 ft | 180 kts | 116° |
| 2026-04-21 22:32 | 42.64567 | 18.05469 | 3700 ft | 176 kts | 116° |
| 2026-04-21 22:32 | 42.63997 | 18.06918 | 3473 ft | 172 kts | 116° |
| 2026-04-21 22:32 | 42.63437 | 18.08339 | 3243 ft | 169 kts | 116° |
| 2026-04-21 22:32 | 42.62888 | 18.09733 | 3020 ft | 166 kts | 116° |
| 2026-04-21 22:33 | 42.62348 | 18.11106 | 2797 ft | 163 kts | 116° |
| 2026-04-21 22:33 | 42.61821 | 18.12441 | 2579 ft | 157 kts | 116° |
| 2026-04-21 22:33 | 42.61314 | 18.13725 | 2370 ft | 151 kts | 116° |
| 2026-04-21 22:33 | 42.60824 | 18.14967 | 2182 ft | 146 kts | 116° |
| 2026-04-21 22:34 | 42.60346 | 18.16178 | 1991 ft | 144 kts | 116° |
| 2026-04-21 22:34 | 42.59872 | 18.17378 | 1793 ft | 144 kts | 116° |
| 2026-04-21 22:34 | 42.59399 | 18.18576 | 1587 ft | 144 kts | 116° |
| 2026-04-21 22:34 | 42.58926 | 18.19772 | 1406 ft | 144 kts | 116° |
| 2026-04-21 22:35 | 42.58452 | 18.20973 | 1220 ft | 144 kts | 116° |
| 2026-04-21 22:35 | 42.57984 | 18.22159 | 1047 ft | 144 kts | 116° |
| 2026-04-21 22:35 | 42.57506 | 18.23356 | 804 ft | 144 kts | 116° |
| 2026-04-21 22:35 | 42.57041 | 18.24541 | 639 ft | 142 kts | 116° |
| 2026-04-21 22:36 | 42.56223 | 18.26613 | 534 ft | 87 kts | 118° |
| 2026-04-21 22:36 | 42.56010 | 18.27149 | 533 ft | 38 kts | 118° |
| 2026-04-21 22:36 | 42.55898 | 18.27334 | 531 ft | 23 kts | 170° |
| 2026-04-21 22:37 | 42.55813 | 18.27340 | 533 ft | 6 kts | 176° |
| 2026-04-21 22:37 | 42.55781 | 18.27329 | 534 ft | 4 kts | 211° |
| 2026-04-21 22:37 | 42.55768 | 18.27302 | 534 ft | 5 kts | 252° |
| 2026-04-21 22:37 | 42.55780 | 18.27251 | 534 ft | 6 kts | 298° |
| 2026-04-21 22:38 | 42.55817 | 18.27158 | 534 ft | 18 kts | 298° |
| 2026-04-21 22:38 | 42.55879 | 18.27001 | 534 ft | 19 kts | 298° |
| 2026-04-21 22:38 | 42.55937 | 18.26855 | 534 ft | 17 kts | 298° |
| 2026-04-21 22:38 | 42.55993 | 18.26714 | 534 ft | 15 kts | 298° |
| 2026-04-21 22:39 | 42.56044 | 18.26585 | 534 ft | 15 kts | 298° |
| 2026-04-21 22:39 | 42.56092 | 18.26465 | 534 ft | 15 kts | 298° |
| 2026-04-21 22:39 | 42.56123 | 18.26387 | 534 ft | 13 kts | 298° |
| 2026-04-21 22:39 | 42.56142 | 18.26338 | 534 ft | 0 kts | 297° |
| 2026-04-21 22:40 | 42.56152 | 18.26313 | 534 ft | 3 kts | 297° |
| 2026-04-21 22:40 | 42.56163 | 18.26283 | 534 ft | 5 kts | 297° |
| 2026-04-21 22:40 | 42.56172 | 18.26238 | 534 ft | 5 kts | 255° |
| 2026-04-21 22:40 | 42.56149 | 18.26216 | 534 ft | 6 kts | 207° |
| 2026-04-21 22:41 | 42.56135 | 18.26206 | 534 ft | 0 kts | 208° |
| 2026-04-21 22:41 | 42.56132 | 18.26203 | 534 ft | 2 kts | 208° |
| 2026-04-21 22:41 | 42.56128 | 18.26200 | 534 ft | 0 kts | 208° |